Time;durP1;ratioP1;P1;durP2;ratioP2;P2;SDS_P1;SDS_P2;PMS_P1;PMS_P2;Temp;Humidity;BMP_temperature;BMP_pressure;BME280_temperature;BME280_humidity;BME280_pressure;Samples;Min_cycle;Max_cycle;Signal;HPM_P1;HPM_P2
2022/01/18 00:02:15;;;;;;;20.75;14.13;;;;;;;0.23;100.00;98332.66;1670685;86;21785;-77
2022/01/18 00:05:20;;;;;;;21.35;13.58;;;;;;;0.29;100.00;98333.89;1670652;86;21175;-76
2022/01/18 00:08:25;;;;;;;19.00;13.05;;;;;;;0.35;100.00;98342.66;1670680;86;21314;-82
2022/01/18 00:11:38;;;;;;;21.87;14.45;;;;;;;0.39;100.00;98337.31;1670646;86;21309;-76
2022/01/18 00:14:44;;;;;;;20.72;13.95;;;;;;;0.46;100.00;98342.38;1670686;86;21187;-80
2022/01/18 00:24:14;;;;;;;16.70;12.63;;;;;;;0.64;100.00;98358.44;1670730;86;21302;-77
2022/01/18 00:27:19;;;;;;;19.00;11.78;;;;;;;0.64;100.00;98357.09;1670640;86;21192;-78
2022/01/18 00:33:49;;;;;;;18.05;11.38;;;;;;;0.68;100.00;98348.55;1670639;86;21333;-77
2022/01/18 00:39:52;;;;;;;15.23;9.98;;;;;;;0.73;100.00;98342.17;1670797;86;21742;-81
2022/01/18 00:42:57;;;;;;;12.43;9.43;;;;;;;0.74;100.00;98340.32;1670518;86;21330;-77
2022/01/18 00:46:03;;;;;;;13.83;8.88;;;;;;;0.75;100.00;98340.17;1667684;86;21314;-77
2022/01/18 00:49:10;;;;;;;14.33;8.53;;;;;;;0.74;100.00;98330.39;1668073;86;21330;-77
2022/01/18 00:52:19;;;;;;;11.50;8.28;;;;;;;0.74;100.00;98333.59;1668078;86;21880;-77
2022/01/18 00:55:26;;;;;;;14.55;7.72;;;;;;;0.72;100.00;98329.73;1668065;86;21298;-81
2022/01/18 00:58:31;;;;;;;10.63;6.20;;;;;;;0.70;100.00;98334.41;1668184;86;21900;-77
2022/01/18 01:01:37;;;;;;;9.15;6.05;;;;;;;0.68;100.00;98336.44;1668032;86;21252;-81
2022/01/18 01:04:48;;;;;;;6.15;5.12;;;;;;;0.68;100.00;98333.74;1667993;86;22074;-78
2022/01/18 01:07:45;;;;;;;8.78;5.03;;;;;;;0.66;100.00;98329.04;1668208;86;21737;-77
2022/01/18 01:10:52;;;;;;;4.47;3.27;;;;;;;0.61;100.00;98343.48;1668042;86;21337;-82
2022/01/18 01:14:01;;;;;;;4.80;3.35;;;;;;;0.53;100.00;98347.47;1668302;86;21212;-79
2022/01/18 01:17:21;;;;;;;5.03;3.60;;;;;;;0.48;100.00;98356.52;1667923;86;21867;-78
2022/01/18 01:34:19;;;;;;;3.20;2.70;;;;;;;0.36;100.00;98352.41;1656293;86;21766;-77
2022/01/18 01:41:39;;;;;;;3.92;2.87;;;;;;;0.33;100.00;98362.13;1656095;86;21346;-77
2022/01/18 01:44:01;;;;;;;3.80;2.90;;;;;;;0.28;100.00;98369.33;1656036;86;21338;-77
2022/01/18 01:46:47;;;;;;;4.05;2.67;;;;;;;0.18;100.00;98361.87;1657666;86;21359;-82
2022/01/18 01:49:54;;;;;;;3.80;2.47;;;;;;;0.15;100.00;98361.70;1661136;86;21781;-80
2022/01/18 01:52:59;;;;;;;2.70;2.05;;;;;;;0.12;100.00;98371.92;1661145;86;21271;-77
2022/01/18 01:56:04;;;;;;;3.75;2.40;;;;;;;0.10;100.00;98386.03;1661005;86;21235;-81
2022/01/18 01:59:10;;;;;;;4.05;2.50;;;;;;;0.08;100.00;98375.92;1660863;86;21367;-82
2022/01/18 02:02:18;;;;;;;4.78;2.45;;;;;;;0.03;100.00;98383.11;1661078;86;21216;-76
2022/01/18 02:05:24;;;;;;;4.03;2.67;;;;;;;-0.06;100.00;98379.51;1660991;86;21789;-76
2022/01/18 02:08:28;;;;;;;5.95;2.45;;;;;;;-0.13;100.00;98387.02;1661043;86;21743;-78
2022/01/18 02:11:34;;;;;;;3.60;2.40;;;;;;;-0.18;100.00;98386.14;1661046;86;21359;-82
2022/01/18 02:14:40;;;;;;;4.12;2.55;;;;;;;-0.19;100.00;98388.97;1660197;86;21279;-83
2022/01/18 02:24:44;;;;;;;6.65;3.12;;;;;;;-0.26;100.00;98388.25;1661025;86;21173;-82
2022/01/18 02:27:50;;;;;;;5.65;3.50;;;;;;;-0.32;100.00;98403.66;1660995;86;21339;-83
2022/01/18 02:30:55;;;;;;;5.78;3.90;;;;;;;-0.36;100.00;98403.61;1660962;86;21884;-83
2022/01/18 02:34:01;;;;;;;5.65;3.50;;;;;;;-0.36;100.00;98408.98;1661129;86;21801;-84
2022/01/18 02:37:07;;;;;;;5.03;3.60;;;;;;;-0.39;100.00;98405.25;1661082;86;21339;-83
2022/01/18 02:40:13;;;;;;;5.92;3.75;;;;;;;-0.37;100.00;98422.58;1660982;86;21176;-77
2022/01/18 02:46:42;;;;;;;5.50;4.03;;;;;;;-0.41;100.00;98413.98;1659899;86;21227;-84
2022/01/18 02:49:47;;;;;;;6.33;4.37;;;;;;;-0.40;100.00;98415.66;1656179;86;21299;-84
2022/01/18 02:52:53;;;;;;;8.08;4.60;;;;;;;-0.42;100.00;98421.70;1656281;86;21295;-81
2022/01/18 02:55:59;;;;;;;6.83;4.47;;;;;;;-0.41;100.00;98415.82;1655751;86;21350;-84
2022/01/18 03:05:55;;;;;;;7.22;4.35;;;;;;;-0.38;100.00;98405.59;1656082;86;21888;-84
2022/01/18 03:09:00;;;;;;;5.60;4.47;;;;;;;-0.38;100.00;98418.18;1656287;86;21670;-81
2022/01/18 03:12:05;;;;;;;5.83;3.87;;;;;;;-0.35;100.00;98413.35;1656195;86;21362;-83
2022/01/18 03:15:11;;;;;;;5.35;4.00;;;;;;;-0.34;100.00;98418.22;1656016;86;21342;-77
2022/01/18 03:18:17;;;;;;;5.78;4.03;;;;;;;-0.31;100.00;98425.48;1686609;85;21375;-76
2022/01/18 03:21:22;;;;;;;5.72;3.50;;;;;;;-0.29;100.00;98420.79;1660908;86;21915;-82
2022/01/18 03:31:00;;;;;;;8.30;2.65;;;;;;;-0.29;100.00;98429.35;1722456;83;21308;-75
2022/01/18 03:34:06;;;;;;;3.10;2.50;;;;;;;-0.32;100.00;98436.39;1722707;83;21287;-82
2022/01/18 03:37:11;;;;;;;3.85;2.50;;;;;;;-0.34;100.00;98444.59;1721784;83;21304;-77
2022/01/18 03:40:16;;;;;;;5.05;2.12;;;;;;;-0.34;100.00;98436.53;1722764;83;21283;-75
2022/01/18 03:43:21;;;;;;;5.40;1.87;;;;;;;-0.34;100.00;98447.27;1722959;83;21852;-76
2022/01/18 03:46:25;;;;;;;7.00;2.12;;;;;;;-0.38;100.00;98452.60;1722473;83;21988;-82
2022/01/18 03:49:35;;;;;;;5.55;2.02;;;;;;;-0.40;100.00;98455.95;1722721;83;21801;-82
2022/01/18 03:52:40;;;;;;;3.67;1.90;;;;;;;-0.43;100.00;98459.44;1721533;83;21310;-83
2022/01/18 03:55:44;;;;;;;8.20;2.22;;;;;;;-0.49;100.00;98460.89;1722608;83;21322;-77
2022/01/18 03:58:49;;;;;;;4.95;1.95;;;;;;;-0.57;100.00;98465.66;1722744;83;21789;-83
2022/01/18 04:01:54;;;;;;;4.05;1.80;;;;;;;-0.61;100.00;98463.42;1722877;83;21837;-83
2022/01/18 04:04:59;;;;;;;4.37;2.08;;;;;;;-0.66;100.00;98465.72;1722865;83;21168;-83
2022/01/18 04:08:05;;;;;;;3.60;1.50;;;;;;;-0.70;100.00;98470.56;1722844;83;21310;-77
2022/01/18 04:11:09;;;;;;;4.47;1.55;;;;;;;-0.75;100.00;98476.89;1722811;83;21766;-83
2022/01/18 04:14:15;;;;;;;2.90;1.32;;;;;;;-0.84;100.00;98484.48;1722830;83;21177;-79
2022/01/18 04:27:17;;;;;;;2.45;1.57;;;;;;;-1.32;98.17;98485.02;1660953;86;21240;-83
2022/01/18 04:30:22;;;;;;;6.17;1.95;;;;;;;-1.42;97.68;98486.86;1730977;83;21314;-84
2022/01/18 04:33:27;;;;;;;6.90;2.00;;;;;;;-1.52;97.46;98491.41;1730955;83;21326;-77
2022/01/18 04:36:32;;;;;;;5.22;1.85;;;;;;;-1.61;97.22;98490.42;1707820;83;21234;-76
2022/01/18 04:39:39;;;;;;;8.95;1.70;;;;;;;-1.71;96.90;98496.30;1707706;83;21306;-84
2022/01/18 04:43:44;;;;;;;4.15;1.60;;;;;;;-1.84;96.84;98493.06;1731008;83;21323;-84
2022/01/18 04:49:14;;;;;;;5.87;2.33;;;;;;;-2.00;96.89;98505.70;1701183;84;21508;-84
2022/01/18 04:52:22;;;;;;;7.12;2.10;;;;;;;-2.07;96.96;98508.58;1700033;84;21734;-84
2022/01/18 04:55:31;;;;;;;3.95;1.65;;;;;;;-2.15;96.94;98507.95;1727589;83;21752;-76
2022/01/18 04:58:34;;;;;;;7.47;2.27;;;;;;;-2.19;96.99;98516.41;1732841;81;21298;-84
2022/01/18 05:01:40;;;;;;;3.60;2.05;;;;;;;-2.23;97.17;98525.70;1725893;81;21862;-84
2022/01/18 05:04:46;;;;;;;7.60;2.98;;;;;;;-2.24;97.58;98520.00;1701223;84;21788;-76
2022/01/18 05:07:52;;;;;;;10.63;3.42;;;;;;;-2.23;97.89;98528.39;1700787;84;21299;-77
2022/01/18 05:10:58;;;;;;;10.68;3.17;;;;;;;-2.18;98.24;98526.14;1703344;83;21345;-84
2022/01/18 05:14:25;;;;;;;11.63;4.08;;;;;;;-2.11;98.62;98528.63;1709371;83;21303;-76
2022/01/18 05:18:09;;;;;;;10.08;4.05;;;;;;;-2.02;98.86;98538.50;1700286;84;21420;-84
2022/01/18 05:23:54;;;;;;;13.48;4.62;;;;;;;-1.88;98.73;98537.25;1632198;88;21327;-84
2022/01/18 05:27:00;;;;;;;9.15;4.40;;;;;;;-1.84;98.66;98539.47;1696413;84;21385;-76
2022/01/18 05:30:06;;;;;;;10.55;4.90;;;;;;;-1.76;98.46;98540.61;1712061;83;21291;-77
2022/01/18 05:33:12;;;;;;;12.15;5.08;;;;;;;-1.72;98.25;98541.53;1701580;83;21260;-83
2022/01/18 05:36:19;;;;;;;10.38;4.20;;;;;;;-1.70;97.88;98548.08;1661120;86;21361;-83
2022/01/18 05:39:18;;;;;;;14.78;4.55;;;;;;;-1.73;97.68;98546.55;1718058;83;21310;-84
2022/01/18 05:42:24;;;;;;;6.70;2.90;;;;;;;-1.74;97.37;98556.92;1720676;83;21745;-77
2022/01/18 05:45:29;;;;;;;17.65;5.92;;;;;;;-1.77;97.09;98553.67;1716177;83;21371;-82
2022/01/18 05:48:34;;;;;;;7.30;4.08;;;;;;;-1.82;96.78;98554.94;1662474;86;21858;-84
2022/01/18 05:51:41;;;;;;;10.40;4.75;;;;;;;-1.88;96.53;98551.98;1715449;83;21172;-77
2022/01/18 05:54:46;;;;;;;8.65;4.58;;;;;;;-1.94;96.18;98553.36;1711055;83;21295;-83
2022/01/18 05:57:52;;;;;;;7.22;3.50;;;;;;;-2.00;96.08;98564.66;1711738;83;21292;-80
2022/01/18 06:00:57;;;;;;;10.80;4.53;;;;;;;-2.02;96.10;98567.98;1718034;81;21322;-77
2022/01/18 06:07:09;;;;;;;12.35;3.90;;;;;;;-1.96;96.25;98574.61;1715265;82;21408;-83
2022/01/18 06:10:14;;;;;;;7.85;3.62;;;;;;;-1.91;96.20;98577.71;1716276;81;21362;-83
2022/01/18 06:13:19;;;;;;;10.32;4.03;;;;;;;-1.84;96.20;98579.67;1661135;84;21315;-83
2022/01/18 06:16:26;;;;;;;4.92;3.20;;;;;;;-1.74;96.01;98582.39;1713401;82;21213;-84
2022/01/18 06:19:31;;;;;;;9.75;4.10;;;;;;;-1.66;95.67;98579.83;1713924;81;21334;-84
2022/01/18 06:22:36;;;;;;;9.10;3.72;;;;;;;-1.62;95.15;98580.40;1701360;81;21370;-83
2022/01/18 06:25:42;;;;;;;10.55;3.40;;;;;;;-1.57;94.92;98589.70;1705151;82;21291;-76
2022/01/18 06:28:51;;;;;;;11.53;4.25;;;;;;;-1.52;94.60;98595.14;1703245;81;21797;-82
2022/01/18 06:31:57;;;;;;;8.10;3.92;;;;;;;-1.49;94.20;98593.03;1669535;83;21251;-76
2022/01/18 06:35:03;;;;;;;10.20;3.70;;;;;;;-1.47;93.90;98603.11;1700265;82;21307;-76
2022/01/18 06:38:08;;;;;;;5.42;3.37;;;;;;;-1.44;93.67;98604.67;1699039;82;21192;-76
2022/01/18 06:41:14;;;;;;;9.55;4.60;;;;;;;-1.42;93.51;98611.58;1698281;82;21209;-77
2022/01/18 06:44:27;;;;;;;8.95;4.90;;;;;;;-1.40;93.12;98612.80;1702705;82;21773;-76
2022/01/18 06:47:33;;;;;;;8.98;4.33;;;;;;;-1.40;92.69;98604.25;1705464;82;21338;-84
2022/01/18 06:50:39;;;;;;;7.30;4.17;;;;;;;-1.33;92.54;98615.24;1700735;82;22349;-83
2022/01/18 06:53:48;;;;;;;9.13;4.50;;;;;;;-1.22;92.50;98619.60;1705078;82;21849;-76
2022/01/18 06:56:58;;;;;;;6.83;3.77;;;;;;;-1.08;92.43;98616.51;1703195;82;21781;-77
2022/01/18 07:00:05;;;;;;;10.60;4.03;;;;;;;-0.96;91.99;98630.09;1701586;82;21919;-77
2022/01/18 07:03:11;;;;;;;7.60;3.92;;;;;;;-0.90;91.46;98627.33;1706029;82;21225;-84
2022/01/18 07:06:16;;;;;;;8.50;4.10;;;;;;;-0.83;91.11;98629.30;1705600;82;22186;-87
2022/01/18 07:09:23;;;;;;;7.50;3.95;;;;;;;-0.81;90.89;98636.70;1704582;82;21346;-85
2022/01/18 07:12:34;;;;;;;9.40;3.95;;;;;;;-0.82;90.81;98647.09;1708478;83;21173;-88
2022/01/18 07:15:49;;;;;;;8.83;3.70;;;;;;;-0.82;90.62;98648.44;1707590;82;21220;-89
2022/01/18 07:18:59;;;;;;;7.55;4.17;;;;;;;-0.78;90.82;98654.37;1706370;82;21707;-88
2022/01/18 07:22:06;;;;;;;9.40;4.40;;;;;;;-0.71;91.01;98653.28;1711095;82;21212;-89
2022/01/18 07:25:19;;;;;;;7.55;4.22;;;;;;;-0.63;91.09;98654.75;1708329;82;21296;-88
2022/01/18 07:28:28;;;;;;;9.40;4.00;;;;;;;-0.63;90.80;98667.67;1678891;84;21189;-88
2022/01/18 07:31:43;;;;;;;7.60;3.77;;;;;;;-0.62;91.06;98672.05;1664834;81;62010;-79
2022/01/18 07:34:53;;;;;;;8.73;3.70;;;;;;;-0.59;91.46;98665.55;1689049;83;21504;-79
2022/01/18 07:38:02;;;;;;;5.42;3.40;;;;;;;-0.57;91.67;98681.02;1692609;82;21923;-80
2022/01/18 07:41:32;;;;;;;5.62;3.17;;;;;;;-0.62;91.80;98676.58;1686071;82;21247;-79
2022/01/18 07:45:02;;;;;;;4.20;1.90;;;;;;;-0.67;91.59;98678.85;1670733;82;21245;-79
2022/01/18 07:48:14;;;;;;;3.72;2.08;;;;;;;-0.80;94.58;98681.37;1642437;85;21482;-79
2022/01/18 07:51:26;;;;;;;2.27;1.40;;;;;;;-0.74;94.38;98685.81;1687589;82;21168;-81
2022/01/18 07:54:49;;;;;;;1.15;1.05;;;;;;;-0.79;89.82;98715.77;1683946;83;21266;-81
2022/01/18 07:58:00;;;;;;;2.85;2.15;;;;;;;-0.91;87.23;98713.72;1683276;83;21887;-79
2022/01/18 08:01:15;;;;;;;2.85;1.60;;;;;;;-0.93;86.82;98718.89;1689025;83;21250;-81
2022/01/18 08:04:30;;;;;;;4.35;1.10;;;;;;;-0.94;86.22;98726.57;1681823;83;21356;-80
2022/01/18 08:07:40;;;;;;;2.33;1.30;;;;;;;-0.94;84.48;98710.47;1646628;84;21400;-78
2022/01/18 08:10:54;;;;;;;1.72;0.98;;;;;;;-0.95;83.72;98725.73;1689793;82;22406;-78
2022/01/18 08:14:03;;;;;;;4.47;0.90;;;;;;;-0.94;82.85;98752.95;1685695;82;21226;-80
2022/01/18 08:17:27;;;;;;;1.17;0.90;;;;;;;-0.88;82.77;98765.80;1679021;83;21224;-80
2022/01/18 08:20:34;;;;;;;1.65;1.02;;;;;;;-0.86;82.26;98778.56;1685066;82;22295;-79
2022/01/18 08:23:41;;;;;;;2.17;0.90;;;;;;;-0.84;83.04;98759.66;1686391;82;21800;-80
2022/01/18 08:26:49;;;;;;;2.05;1.30;;;;;;;-0.85;83.41;98782.97;1687763;82;21238;-79
2022/01/18 08:29:58;;;;;;;;;;;;;;;-0.85;83.80;98774.92;1693338;82;21390;-80
2022/01/18 08:33:06;;;;;;;2.72;1.10;;;;;;;-0.87;84.13;98796.16;1685422;83;20298;-80
2022/01/18 08:36:12;;;;;;;4.17;1.32;;;;;;;-0.88;84.37;98774.34;1691736;82;21309;-80
2022/01/18 08:39:17;;;;;;;2.70;1.42;;;;;;;-0.95;84.38;98791.98;1638797;84;21244;-79
2022/01/18 08:42:40;;;;;;;1.87;1.00;;;;;;;-1.04;85.41;98785.12;1643788;84;21234;-79
2022/01/18 08:45:50;;;;;;;3.00;1.30;;;;;;;-1.06;86.45;98801.02;1692409;82;21246;-79
2022/01/18 08:49:09;;;;;;;7.70;1.40;;;;;;;-1.07;87.96;98803.36;1686123;82;21227;-79
2022/01/18 08:52:23;;;;;;;2.45;1.35;;;;;;;-1.11;88.65;98792.55;1695707;83;22472;-80
2022/01/18 08:55:35;;;;;;;1.22;1.05;;;;;;;-1.30;89.08;98800.91;1691850;83;21200;-80
2022/01/18 08:58:41;;;;;;;1.47;0.98;;;;;;;-1.45;89.97;98829.12;1650621;84;21827;-79
2022/01/18 09:01:48;;;;;;;2.25;1.30;;;;;;;-1.59;89.73;98816.08;1695407;82;21217;-79
2022/01/18 09:05:14;;;;;;;4.65;1.47;;;;;;;-1.68;89.73;98827.62;1848550;76;22214;-80
2022/01/18 09:08:55;;;;;;;1.95;1.35;;;;;;;-1.78;89.13;98836.96;1840891;76;22406;-79
2022/01/18 09:11:58;;;;;;;7.70;1.45;;;;;;;-1.84;88.63;98850.37;1762758;79;21420;-78
2022/01/18 09:15:07;;;;;;;1.10;1.00;;;;;;;-1.83;88.16;98842.72;1754146;79;21220;-78
2022/01/18 09:18:12;;;;;;;2.05;1.20;;;;;;;-1.81;87.96;98842.08;1757490;80;21976;-79
2022/01/18 09:21:20;;;;;;;2.98;1.50;;;;;;;-1.85;86.69;98867.95;1762578;80;21160;-80
2022/01/18 09:24:27;;;;;;;5.65;1.85;;;;;;;-1.99;85.42;98851.72;1752999;80;21390;-80
2022/01/18 09:27:43;;;;;;;5.65;2.42;;;;;;;-2.06;85.12;98893.44;1756866;80;21909;-80
2022/01/18 09:30:56;;;;;;;9.50;2.35;;;;;;;-2.19;85.43;98887.42;1763955;80;21306;-79
2022/01/18 09:34:04;;;;;;;8.43;2.40;;;;;;;-2.25;86.23;98882.59;1731140;80;22543;-80
2022/01/18 09:37:10;;;;;;;3.15;1.95;;;;;;;-2.35;87.94;98902.11;1780054;79;21783;-79
2022/01/18 09:40:18;;;;;;;4.10;1.45;;;;;;;-2.41;89.14;98903.09;1777536;79;21197;-79
2022/01/18 09:43:27;;;;;;;4.40;1.60;;;;;;;-2.46;90.52;98891.92;1783766;79;21147;-78
2022/01/18 09:46:34;;;;;;;2.90;1.52;;;;;;;-2.49;91.53;98895.73;1770057;79;21348;-82
2022/01/18 10:01:25;;;;;;;2.05;1.80;;;;;;;-2.57;91.57;98947.72;1721328;80;21260;-78
2022/01/18 10:04:33;;;;;;;4.20;1.82;;;;;;;-2.77;91.12;98929.77;1778580;79;21460;-79
2022/01/18 10:07:42;;;;;;;2.67;1.80;;;;;;;-2.91;90.28;98947.80;1724660;81;21434;-80
2022/01/18 10:11:00;;;;;;;2.87;1.70;;;;;;;-2.97;90.78;98937.58;1753494;79;21321;-79
2022/01/18 10:18:18;;;;;;;3.08;1.90;;;;;;;-2.99;91.74;98948.05;1749181;79;21294;-78
2022/01/18 10:21:49;;;;;;;4.53;1.98;;;;;;;-2.94;91.56;98959.23;1759817;79;21222;-78
2022/01/18 10:24:53;;;;;;;11.12;2.35;;;;;;;-2.86;91.16;98950.95;1755787;79;22533;-79
2022/01/18 10:27:58;;;;;;;3.47;1.92;;;;;;;-2.76;88.92;98989.02;1725323;79;22280;-79
2022/01/18 10:31:06;;;;;;;5.45;2.17;;;;;;;-2.69;88.32;98974.98;1742835;79;21231;-78
2022/01/18 10:35:09;;;;;;;3.15;1.92;;;;;;;-2.65;87.31;98990.31;1727264;80;22090;-78
2022/01/18 10:37:42;;;;;;;6.78;2.47;;;;;;;-2.58;86.67;98997.73;1732344;80;21268;-81
2022/01/18 10:40:50;;;;;;;3.42;2.12;;;;;;;-2.44;85.74;99008.66;1735295;79;21177;-79
2022/01/18 10:44:20;;;;;;;4.20;1.90;;;;;;;-2.32;82.62;99001.42;1724145;79;21262;-79
2022/01/18 10:47:26;;;;;;;4.83;2.30;;;;;;;-2.27;81.77;99011.77;1751067;80;21187;-79
2022/01/18 10:50:35;;;;;;;3.57;1.70;;;;;;;-2.25;81.14;99026.74;1753774;80;21917;-79
2022/01/18 10:53:41;;;;;;;3.15;1.72;;;;;;;-2.23;81.23;99007.36;1754738;80;21322;-79
2022/01/18 10:56:50;;;;;;;4.15;1.50;;;;;;;-2.24;80.52;99031.61;1753973;80;21223;-79
2022/01/18 11:00:04;;;;;;;3.60;1.80;;;;;;;-2.28;80.12;99024.80;1754201;80;21252;-79
2022/01/18 11:03:12;;;;;;;3.90;1.80;;;;;;;-2.35;79.70;99036.03;1756592;80;21427;-80
2022/01/18 11:06:26;;;;;;;5.17;2.42;;;;;;;-2.42;79.19;99075.47;1752612;80;21533;-79
2022/01/18 11:09:32;;;;;;;3.87;1.87;;;;;;;-2.44;79.59;99054.18;1764246;79;21346;-80
2022/01/18 11:13:11;;;;;;;2.40;1.62;;;;;;;-2.42;79.52;99036.15;1770494;80;21879;-80
2022/01/18 11:16:23;;;;;;;7.20;2.37;;;;;;;-2.50;78.67;99045.29;1772174;80;21333;-81
2022/01/18 11:19:32;;;;;;;4.85;1.90;;;;;;;-2.51;78.68;99061.48;1766125;80;21744;-81
2022/01/18 11:22:37;;;;;;;2.87;1.92;;;;;;;-2.47;78.83;99058.44;1766452;80;21266;-79
2022/01/18 11:25:44;;;;;;;3.72;2.12;;;;;;;-2.46;78.19;99066.83;1767077;80;21173;-80
2022/01/18 11:29:01;;;;;;;6.00;2.05;;;;;;;-2.43;78.48;99084.48;1763240;80;21328;-79
2022/01/18 11:32:24;;;;;;;4.83;2.47;;;;;;;-2.41;78.42;99083.38;1767260;80;21315;-79
2022/01/18 11:36:07;;;;;;;6.85;1.82;;;;;;;-2.36;78.34;99111.97;1771156;80;21322;-79
2022/01/18 11:39:37;;;;;;;6.15;1.85;;;;;;;-2.35;77.96;99092.27;1769347;80;21308;-80
2022/01/18 11:42:58;;;;;;;5.45;2.00;;;;;;;-2.43;76.98;99116.13;1754052;80;21351;-81
2022/01/18 11:46:06;;;;;;;3.80;2.05;;;;;;;-2.50;77.08;99119.41;1769883;80;21255;-80
2022/01/18 11:49:33;;;;;;;4.05;2.02;;;;;;;-2.62;76.75;99127.95;1771744;79;21342;-80
2022/01/18 11:52:47;;;;;;;3.95;2.10;;;;;;;-2.69;77.13;99136.09;1771817;80;21202;-80
2022/01/18 11:55:46;;;;;;;2.20;1.52;;;;;;;-2.69;77.47;99138.77;1737843;82;21347;-79
2022/01/18 11:58:51;;;;;;;2.98;2.00;;;;;;;-2.69;77.23;99134.26;1760591;80;22023;-79
2022/01/18 12:02:05;;;;;;;6.72;2.45;;;;;;;-2.73;76.39;99165.41;1776860;80;21326;-78
2022/01/18 12:05:24;;;;;;;2.95;1.90;;;;;;;-2.73;76.00;99164.06;1841957;76;22854;-78
2022/01/18 12:08:52;;;;;;;2.70;1.60;;;;;;;-2.77;76.68;99172.84;1813729;77;22559;-78
2022/01/18 12:12:04;;;;;;;3.98;2.00;;;;;;;-2.77;76.56;99182.70;1815567;77;21399;-81
2022/01/18 12:15:11;;;;;;;3.37;2.00;;;;;;;-2.73;76.82;99200.20;1814362;77;21295;-78
2022/01/18 12:18:25;;;;;;;2.95;1.90;;;;;;;-2.71;76.81;99200.46;1817216;77;21373;-80
2022/01/18 12:21:34;;;;;;;4.33;1.62;;;;;;;-2.70;76.37;99214.20;1815275;77;21365;-78
2022/01/18 12:24:46;;;;;;;6.30;1.92;;;;;;;-2.70;75.65;99212.02;1818589;77;21290;-79
2022/01/18 12:27:49;;;;;;;2.87;2.00;;;;;;;-2.72;76.10;99216.16;1817376;77;21921;-78
2022/01/18 12:31:06;;;;;;;3.15;2.05;;;;;;;-2.72;76.33;99222.00;1813243;77;21289;-79
2022/01/18 12:34:05;;;;;;;4.97;2.10;;;;;;;-2.67;76.68;99219.33;1814269;77;21776;-79
2022/01/18 12:37:26;;;;;;;2.87;1.82;;;;;;;-2.65;76.03;99241.95;1814523;77;21844;-80
2022/01/18 12:40:35;;;;;;;3.12;1.87;;;;;;;-2.67;75.88;99235.88;1762500;80;21323;-79
2022/01/18 12:47:20;;;;;;;3.45;1.67;;;;;;;-2.84;75.52;99246.05;1716049;81;21650;-80
2022/01/18 12:50:32;;;;;;;9.23;2.10;;;;;;;-2.91;76.26;99257.36;1739518;80;21385;-80
2022/01/18 12:53:39;;;;;;;3.80;2.00;;;;;;;-2.94;76.26;99269.13;1752775;80;21220;-79
2022/01/18 12:56:49;;;;;;;2.62;1.82;;;;;;;-2.95;76.80;99269.27;1750062;80;21347;-78
2022/01/18 13:00:16;;;;;;;1.75;1.65;;;;;;;-3.01;76.45;99286.64;1750221;80;21338;-80
2022/01/18 13:03:35;;;;;;;3.50;2.00;;;;;;;-3.06;76.09;99274.06;1753071;80;21303;-80
2022/01/18 13:06:41;;;;;;;4.05;2.02;;;;;;;-3.10;76.18;99304.72;1728824;82;21338;-81
2022/01/18 13:10:11;;;;;;;5.12;1.90;;;;;;;-3.15;76.35;99302.87;1722361;82;21220;-78
2022/01/18 13:13:19;;;;;;;7.65;2.10;;;;;;;-3.16;76.49;99289.09;1717820;82;22031;-78
2022/01/18 13:23:08;;;;;;;4.65;2.33;;;;;;;-3.16;77.49;99316.70;1702070;83;21609;-79
2022/01/18 13:26:15;;;;;;;9.40;2.42;;;;;;;-3.16;77.33;99310.50;1724517;81;21358;-78
2022/01/18 13:29:27;;;;;;;5.37;1.95;;;;;;;-3.21;77.51;99310.84;1722401;82;21299;-79
2022/01/18 13:32:35;;;;;;;10.32;2.00;;;;;;;-3.22;76.88;99335.03;1716930;82;22123;-78
2022/01/18 13:35:40;;;;;;;2.77;1.80;;;;;;;-3.25;76.26;99348.62;1718356;82;21675;-78
2022/01/18 13:38:45;;;;;;;2.87;1.77;;;;;;;-3.24;76.69;99329.81;1707332;83;21312;-79
2022/01/18 13:41:50;;;;;;;4.22;2.10;;;;;;;-3.20;77.37;99350.47;1711067;83;21359;-79
2022/01/18 13:45:32;;;;;;;5.25;1.90;;;;;;;-3.19;77.60;99358.89;1696535;83;21824;-79
2022/01/18 13:48:40;;;;;;;3.72;1.75;;;;;;;-3.19;77.50;99351.72;1734549;80;22331;-78
2022/01/18 13:51:46;;;;;;;4.62;2.10;;;;;;;-3.23;77.51;99351.57;1726689;80;21320;-79
2022/01/18 13:54:59;;;;;;;4.05;2.40;;;;;;;-3.28;77.26;99357.74;1729682;80;21816;-79
2022/01/18 13:58:05;;;;;;;3.90;2.17;;;;;;;-3.28;78.02;99372.94;1729969;81;21688;-80
2022/01/18 14:01:27;;;;;;;10.35;1.77;;;;;;;-3.27;78.44;99372.81;1733164;80;21334;-79
2022/01/18 14:04:29;;;;;;;5.80;2.02;;;;;;;-3.30;78.13;99381.54;1714916;83;21309;-78
2022/01/18 14:07:37;;;;;;;2.95;1.80;;;;;;;-3.38;78.73;99380.77;1723736;82;21311;-78
2022/01/18 14:10:42;;;;;;;5.70;2.08;;;;;;;-3.45;78.71;99395.05;1721306;82;21275;-76
2022/01/18 14:13:47;;;;;;;3.00;1.87;;;;;;;-3.44;79.03;99401.25;1688255;83;21900;-79
2022/01/18 14:17:01;;;;;;;4.58;1.82;;;;;;;-3.42;79.16;99402.01;1719660;82;21319;-80
2022/01/18 14:20:18;;;;;;;3.42;1.67;;;;;;;-3.47;78.98;99387.63;1711519;83;21888;-80
2022/01/18 14:23:28;;;;;;;4.20;2.30;;;;;;;-3.54;78.48;99388.17;1715052;82;21949;-79
2022/01/18 14:26:35;;;;;;;4.60;1.92;;;;;;;-3.61;77.98;99418.51;1691732;83;21208;-77
2022/01/18 14:29:53;;;;;;;5.42;2.15;;;;;;;-3.66;78.14;99403.28;1717603;82;21435;-77
2022/01/18 14:33:00;;;;;;;3.27;2.12;;;;;;;-3.72;78.44;99417.91;1718352;82;21212;-77
2022/01/18 14:36:05;;;;;;;9.23;2.45;;;;;;;-3.82;78.33;99409.31;1709442;83;21275;-78
2022/01/18 14:39:16;;;;;;;3.65;2.02;;;;;;;-3.91;78.26;99428.17;1718655;82;21339;-77
2022/01/18 14:42:23;;;;;;;3.00;2.00;;;;;;;-3.96;79.15;99437.84;1720500;82;21340;-79
2022/01/18 14:45:34;;;;;;;10.95;2.30;;;;;;;-4.01;78.95;99447.98;1728525;82;21866;-78
2022/01/18 14:48:41;;;;;;;4.85;2.40;;;;;;;-4.01;79.30;99473.85;1720628;82;21330;-79
2022/01/18 14:51:47;;;;;;;3.85;2.08;;;;;;;-4.04;78.76;99473.59;1704211;82;21319;-78
2022/01/18 14:54:52;;;;;;;2.37;2.02;;;;;;;-4.09;78.91;99482.41;1712055;82;21323;-78
2022/01/18 14:57:58;;;;;;;3.33;2.10;;;;;;;-4.10;79.17;99472.66;1683529;85;21378;-79
2022/01/18 15:01:05;;;;;;;2.58;1.82;;;;;;;-4.16;79.24;99472.59;1712993;83;21332;-77
2022/01/18 15:04:12;;;;;;;3.52;1.90;;;;;;;-4.18;79.44;99489.70;1685438;83;21351;-77
2022/01/18 15:07:18;;;;;;;3.20;1.98;;;;;;;-4.18;79.71;99493.23;1723777;81;21363;-77
2022/01/18 15:10:24;;;;;;;9.15;2.00;;;;;;;-4.19;79.96;99509.33;1737013;82;21229;-77
2022/01/18 15:13:30;;;;;;;4.08;2.40;;;;;;;-4.21;80.29;99507.26;1790341;80;21221;-79
2022/01/18 15:16:36;;;;;;;7.15;2.05;;;;;;;-4.20;80.74;99526.32;1790545;80;21293;-79
2022/01/18 15:19:41;;;;;;;9.00;2.10;;;;;;;-4.18;81.11;99531.09;1789644;80;21823;-79
2022/01/18 15:22:45;;;;;;;2.72;2.20;;;;;;;-4.12;81.60;99533.35;1792396;80;21347;-78
2022/01/18 15:25:53;;;;;;;3.12;1.90;;;;;;;-4.08;81.44;99534.86;1792022;80;21348;-77
2022/01/18 15:28:58;;;;;;;4.70;1.92;;;;;;;-4.01;80.75;99550.84;1790996;80;21827;-77
2022/01/18 15:32:05;;;;;;;4.45;2.17;;;;;;;-3.99;80.46;99540.92;1792563;80;21788;-78
2022/01/18 15:35:12;;;;;;;6.22;2.67;;;;;;;-3.99;80.50;99547.61;1791473;80;21338;-77
2022/01/18 15:38:11;;;;;;;4.60;2.30;;;;;;;-4.00;80.94;99543.23;1792529;80;21229;-77
2022/01/18 15:41:17;;;;;;;3.98;2.10;;;;;;;-3.98;81.87;99564.48;1792295;80;21297;-77
2022/01/18 15:44:23;;;;;;;5.97;2.70;;;;;;;-4.01;82.61;99560.19;1790868;80;21196;-77
2022/01/18 15:47:28;;;;;;;9.15;2.92;;;;;;;-4.01;83.52;99580.23;1791634;80;21205;-77
2022/01/18 15:50:34;;;;;;;2.95;1.95;;;;;;;-3.98;84.44;99576.02;1791066;80;21320;-79
2022/01/18 15:53:39;;;;;;;7.92;2.33;;;;;;;-3.98;84.95;99573.36;1792430;80;21172;-79
2022/01/18 15:56:45;;;;;;;4.95;2.58;;;;;;;-3.98;85.60;99581.37;1792117;80;21291;-79
2022/01/18 15:59:52;;;;;;;8.05;3.37;;;;;;;-4.02;86.42;99589.20;1792846;80;21300;-79
2022/01/18 16:02:59;;;;;;;8.43;2.85;;;;;;;-4.05;86.81;99585.39;1792491;80;21293;-77
2022/01/18 16:06:05;;;;;;;8.55;3.00;;;;;;;-4.11;86.97;99586.66;1791473;80;21320;-79
2022/01/18 16:09:10;;;;;;;7.35;2.58;;;;;;;-4.20;87.73;99607.77;1795636;79;21375;-79
2022/01/18 16:12:17;;;;;;;7.53;3.05;;;;;;;-4.27;88.42;99597.98;1796482;80;21299;-79
2022/01/18 16:15:22;;;;;;;7.65;3.40;;;;;;;-4.37;89.42;99586.20;1798005;80;21161;-79
2022/01/18 16:18:28;;;;;;;6.05;2.98;;;;;;;-4.41;90.07;99597.54;1796711;80;21292;-79
2022/01/18 16:21:33;;;;;;;5.25;2.83;;;;;;;-4.44;90.67;99600.40;1798067;80;21178;-79
2022/01/18 16:24:39;;;;;;;7.20;3.27;;;;;;;-4.48;91.06;99605.55;1798002;80;21816;-79
2022/01/18 16:27:45;;;;;;;6.42;3.50;;;;;;;-4.51;91.33;99604.91;1797230;80;21332;-79